Time;durP1;ratioP1;P1;durP2;ratioP2;P2;SDS_P1;SDS_P2;PMS_P1;PMS_P2;Temp;Humidity;BMP_temperature;BMP_pressure;BME280_temperature;BME280_humidity;BME280_pressure;Samples;Min_cycle;Max_cycle;Signal;HPM_P1;HPM_P2
2021/06/05 00:00:10;;;;;;;14.47;7.40;;;20.40;99.90;;;;;;5058316;28;20542;-77
2021/06/05 00:02:35;;;;;;;10.87;7.57;;;20.40;99.90;;;;;;5058145;28;20188;-78
2021/06/05 00:05:04;;;;;;;13.43;8.07;;;20.50;99.90;;;;;;5092688;28;20176;-78
2021/06/05 00:07:40;;;;;;;11.30;7.67;;;20.60;99.90;;;;;;5074254;28;20575;-77
2021/06/05 00:10:12;;;;;;;13.37;7.73;;;20.70;99.90;;;;;;5059595;28;20556;-78
2021/06/05 00:12:38;;;;;;;12.43;8.53;;;20.70;99.90;;;;;;5074814;28;20213;-77
2021/06/05 00:15:13;;;;;;;12.53;8.87;;;20.60;99.90;;;;;;5091163;28;20200;-77
2021/06/05 00:17:38;;;;;;;13.47;9.00;;;20.60;99.90;;;;;;5091384;28;20164;-77
2021/06/05 00:20:10;;;;;;;13.60;9.07;;;20.60;99.90;;;;;;5074306;28;20172;-77
2021/06/05 00:22:35;;;;;;;14.80;9.40;;;20.50;99.90;;;;;;5074721;28;20193;-78
2021/06/05 00:25:07;;;;;;;13.03;8.70;;;20.40;99.90;;;;;;5056969;28;20686;-78
2021/06/05 00:27:34;;;;;;;13.67;9.03;;;20.30;99.90;;;;;;5091189;28;20200;-77
2021/06/05 00:30:05;;;;;;;15.73;9.20;;;20.30;99.90;;;;;;5074408;28;20189;-77
2021/06/05 00:32:36;;;;;;;12.90;9.03;;;20.20;99.90;;;;;;5073800;28;20205;-77
2021/06/05 00:35:02;;;;;;;13.47;8.87;;;20.20;99.90;;;;;;5074578;28;20260;-78
2021/06/05 00:37:28;;;;;;;15.90;10.07;;;20.20;99.90;;;;;;5057658;28;20181;-77
2021/06/05 00:39:54;;;;;;;16.27;9.47;;;20.10;99.90;;;;;;5074203;28;20177;-78
2021/06/05 00:42:24;;;;;;;16.97;9.23;;;20.10;99.90;;;;;;5090839;28;20200;-78
2021/06/05 00:44:55;;;;;;;15.00;9.40;;;20.00;99.90;;;;;;5090865;28;20173;-77
2021/06/05 00:47:24;;;;;;;14.00;9.30;;;20.00;99.90;;;;;;5058110;28;20208;-77
2021/06/05 00:49:55;;;;;;;15.17;9.87;;;20.00;99.90;;;;;;5090687;28;20184;-77
2021/06/05 00:52:24;;;;;;;14.20;9.10;;;20.00;99.90;;;;;;5074894;28;20559;-77
2021/06/05 00:54:52;;;;;;;16.77;10.33;;;20.10;99.90;;;;;;5090821;28;20256;-77
2021/06/05 00:57:18;;;;;;;15.03;10.23;;;20.00;99.90;;;;;;5074271;28;20185;-77
2021/06/05 00:59:46;;;;;;;17.10;10.83;;;20.10;99.90;;;;;;5090558;28;20229;-77
2021/06/05 01:02:16;;;;;;;14.33;10.23;;;20.00;99.90;;;;;;5074360;28;20197;-77
2021/06/05 01:04:44;;;;;;;15.47;10.60;;;20.00;99.90;;;;;;5074049;28;20177;-77
2021/06/05 01:07:16;;;;;;;19.20;11.50;;;19.90;99.90;;;;;;5090643;28;20205;-78
2021/06/05 01:09:58;;;;;;;17.57;11.13;;;19.90;99.90;;;;;;5073822;28;20179;-77
2021/06/05 01:13:03;;;;;;;18.67;11.57;;;19.80;99.90;;;;;;5090770;28;20200;-76
2021/06/05 01:15:31;;;;;;;20.67;11.63;;;19.80;99.90;;;;;;5090361;28;20208;-77
2021/06/05 01:18:01;;;;;;;19.00;10.63;;;19.80;99.90;;;;;;5073821;28;20603;-77
2021/06/05 01:20:45;;;;;;;17.33;11.43;;;19.70;99.90;;;;;;5077421;28;20210;-78
2021/06/05 01:23:24;;;;;;;17.03;11.43;;;19.70;99.90;;;;;;5094551;28;20169;-77
2021/06/05 01:26:07;;;;;;;19.37;11.53;;;19.70;99.90;;;;;;5094318;28;20295;-78
2021/06/05 01:28:36;;;;;;;19.03;12.17;;;19.70;99.90;;;;;;5094238;28;20177;-78
2021/06/05 01:31:07;;;;;;;20.37;12.30;;;19.60;99.90;;;;;;5077679;28;20188;-77
2021/06/05 01:33:36;;;;;;;17.23;10.90;;;19.70;99.90;;;;;;5061914;28;20201;-77
2021/06/05 01:36:05;;;;;;;18.13;11.30;;;19.60;99.90;;;;;;5077584;28;20671;-78
2021/06/05 01:38:31;;;;;;;18.57;11.13;;;19.60;99.90;;;;;;5077857;28;20169;-78
2021/06/05 01:40:57;;;;;;;18.10;12.13;;;19.60;99.90;;;;;;5093901;28;20694;-78
2021/06/05 01:43:27;;;;;;;18.53;12.00;;;19.60;99.90;;;;;;5077348;28;20181;-77
2021/06/05 01:45:52;;;;;;;17.20;11.17;;;19.80;99.90;;;;;;5077677;28;20253;-77
2021/06/05 01:48:19;;;;;;;19.67;11.53;;;19.70;99.90;;;;;;5077191;28;20640;-77
2021/06/05 01:50:48;;;;;;;18.50;11.43;;;19.80;99.90;;;;;;5059829;28;20563;-78
2021/06/05 01:53:26;;;;;;;17.37;11.57;;;19.70;99.90;;;;;;5062322;28;20538;-78
2021/06/05 01:56:10;;;;;;;19.27;11.97;;;19.70;99.90;;;;;;5077526;28;20557;-77
2021/06/05 01:58:39;;;;;;;19.93;12.90;;;19.60;99.90;;;;;;5095017;28;20567;-78
2021/06/05 02:01:05;;;;;;;18.23;11.47;;;19.70;99.90;;;;;;5077152;28;20619;-76
2021/06/05 02:03:31;;;;;;;20.17;12.50;;;19.60;99.90;;;;;;5076839;28;20606;-77
2021/06/05 02:05:57;;;;;;;21.33;12.43;;;19.60;99.90;;;;;;5076338;28;20261;-77
2021/06/05 02:08:32;;;;;;;17.83;11.33;;;19.70;99.90;;;;;;5093610;28;20687;-77
2021/06/05 02:11:08;;;;;;;20.70;12.80;;;19.60;99.90;;;;;;5060873;28;20196;-78
2021/06/05 02:13:42;;;;;;;19.27;12.03;;;19.60;99.90;;;;;;5077511;28;20163;-77
2021/06/05 02:16:23;;;;;;;22.27;12.20;;;19.60;99.90;;;;;;5077621;28;20175;-77
2021/06/05 02:18:54;;;;;;;19.37;11.97;;;19.50;99.90;;;;;;5077313;28;20172;-77
2021/06/05 02:21:30;;;;;;;18.23;12.13;;;19.60;99.90;;;;;;5076278;28;20208;-77
2021/06/05 02:24:09;;;;;;;18.73;11.73;;;19.60;99.90;;;;;;5092861;28;20208;-78
2021/06/05 02:26:40;;;;;;;19.47;12.13;;;19.50;99.90;;;;;;5076738;28;20203;-78
2021/06/05 02:29:06;;;;;;;20.60;12.40;;;19.50;99.90;;;;;;5077227;28;20643;-79
2021/06/05 02:31:35;;;;;;;20.50;12.70;;;19.40;99.90;;;;;;5058329;28;20231;-77
2021/06/05 02:34:03;;;;;;;19.53;11.87;;;19.40;99.90;;;;;;5076772;28;20237;-77
2021/06/05 02:36:29;;;;;;;19.33;11.60;;;19.40;99.90;;;;;;5076513;28;20173;-77
2021/06/05 02:39:02;;;;;;;19.03;11.13;;;19.30;99.90;;;;;;5075544;28;20527;-78
2021/06/05 02:41:27;;;;;;;20.60;12.20;;;19.30;99.90;;;;;;5076463;28;20206;-77
2021/06/05 02:43:54;;;;;;;21.27;12.83;;;19.40;99.90;;;;;;5093158;28;20177;-77
2021/06/05 02:46:25;;;;;;;20.23;12.37;;;19.50;99.90;;;;;;5076054;28;20204;-77
2021/06/05 02:48:55;;;;;;;21.63;12.40;;;19.50;99.90;;;;;;5076054;28;20179;-78
2021/06/05 02:51:25;;;;;;;19.33;11.53;;;19.50;99.90;;;;;;5076146;28;20215;-77
2021/06/05 02:54:00;;;;;;;20.77;12.10;;;19.40;99.90;;;;;;5076199;28;20181;-77
2021/06/05 02:56:28;;;;;;;19.83;11.90;;;19.40;99.90;;;;;;5061555;28;20187;-77
2021/06/05 02:58:56;;;;;;;18.60;11.20;;;19.40;99.90;;;;;;5092087;28;20718;-77
2021/06/05 03:01:22;;;;;;;19.47;12.33;;;19.30;99.90;;;;;;5059390;28;20581;-77
2021/06/05 03:03:50;;;;;;;19.87;11.67;;;19.20;99.90;;;;;;5094029;28;20181;-76
2021/06/05 03:06:16;;;;;;;21.53;12.47;;;19.20;99.90;;;;;;5092368;28;20225;-77
2021/06/05 03:08:51;;;;;;;21.00;12.70;;;19.30;99.90;;;;;;5075708;28;20215;-77
2021/06/05 03:11:19;;;;;;;19.07;12.03;;;19.20;99.90;;;;;;5075707;28;20204;-77
2021/06/05 03:13:53;;;;;;;22.07;12.50;;;19.20;99.90;;;;;;5075713;28;20180;-78
2021/06/05 03:16:19;;;;;;;18.03;11.90;;;19.30;99.90;;;;;;5075394;28;20547;-76
2021/06/05 03:18:45;;;;;;;19.50;11.93;;;19.30;99.90;;;;;;5092322;28;20179;-77
2021/06/05 03:21:15;;;;;;;17.63;11.70;;;19.40;99.90;;;;;;5058956;28;20625;-77
2021/06/05 03:23:41;;;;;;;19.13;12.17;;;19.40;99.90;;;;;;5059564;28;20584;-77
2021/06/05 03:26:10;;;;;;;21.80;12.30;;;19.30;99.90;;;;;;5091892;28;20209;-77
2021/06/05 03:28:38;;;;;;;20.40;11.63;;;19.30;99.90;;;;;;5075731;28;20180;-78
2021/06/05 03:31:04;;;;;;;21.33;12.70;;;19.20;99.90;;;;;;5075045;28;20205;-77
2021/06/05 03:33:30;;;;;;;18.70;11.97;;;19.20;99.90;;;;;;5091989;28;20260;-77
2021/06/05 03:35:56;;;;;;;19.83;12.63;;;19.20;99.90;;;;;;5091777;28;20181;-77
2021/06/05 03:38:28;;;;;;;20.40;11.83;;;19.20;99.90;;;;;;5091877;28;20181;-77
2021/06/05 03:40:57;;;;;;;19.37;12.10;;;19.10;99.90;;;;;;5075050;28;20200;-78
2021/06/05 03:43:27;;;;;;;21.47;12.13;;;19.10;99.90;;;;;;5058013;28;20185;-77
2021/06/05 03:45:53;;;;;;;21.67;12.43;;;19.10;99.90;;;;;;5091653;28;20211;-77
2021/06/05 03:48:19;;;;;;;21.80;12.77;;;19.00;99.90;;;;;;5091656;28;20188;-77
2021/06/05 03:50:48;;;;;;;21.00;12.27;;;19.00;99.90;;;;;;5091406;28;20272;-78
2021/06/05 03:53:14;;;;;;;19.67;12.23;;;19.00;99.90;;;;;;5091631;28;20187;-77
2021/06/05 03:55:40;;;;;;;22.00;12.87;;;19.00;99.90;;;;;;5074537;28;20637;-76
2021/06/05 03:58:06;;;;;;;21.93;12.73;;;18.90;99.90;;;;;;5093247;28;20188;-78
2021/06/05 04:00:36;;;;;;;20.03;11.83;;;18.90;99.90;;;;;;5077883;28;21860;-79
2021/06/05 04:03:03;;;;;;;23.50;12.53;;;18.90;99.90;;;;;;5078684;28;20181;-79
2021/06/05 04:05:28;;;;;;;20.07;11.77;;;18.80;99.90;;;;;;5078626;28;20184;-79
2021/06/05 04:07:54;;;;;;;21.57;12.33;;;18.80;99.90;;;;;;5095485;28;20181;-80
2021/06/05 04:10:22;;;;;;;20.03;12.60;;;18.80;99.90;;;;;;5095512;28;20255;-79
2021/06/05 04:12:48;;;;;;;22.50;12.80;;;18.70;99.90;;;;;;5078470;28;20180;-79
2021/06/05 04:15:14;;;;;;;20.37;12.30;;;18.70;99.90;;;;;;5081144;28;20666;-80
2021/06/05 04:17:40;;;;;;;22.80;12.30;;;18.80;99.90;;;;;;5078915;28;20701;-79
2021/06/05 04:20:08;;;;;;;21.73;12.23;;;18.70;99.90;;;;;;5078105;28;20192;-79
2021/06/05 04:22:33;;;;;;;20.97;12.17;;;18.80;99.90;;;;;;5078248;28;20230;-79
2021/06/05 04:25:00;;;;;;;20.63;12.60;;;18.80;99.90;;;;;;5078377;28;20197;-78
2021/06/05 04:27:26;;;;;;;21.13;11.87;;;18.90;99.90;;;;;;5095070;28;20236;-80
2021/06/05 04:29:52;;;;;;;19.97;12.53;;;18.90;99.90;;;;;;5082179;28;20168;-79
2021/06/05 04:32:18;;;;;;;20.10;12.07;;;18.90;99.90;;;;;;5080314;28;20196;-79
2021/06/05 04:34:44;;;;;;;19.33;11.63;;;18.90;99.90;;;;;;5077847;28;20205;-79
2021/06/05 04:37:09;;;;;;;19.73;11.13;;;18.90;99.90;;;;;;5078574;28;20172;-78
2021/06/05 04:39:35;;;;;;;20.60;11.87;;;19.00;99.90;;;;;;5095075;28;20169;-80
2021/06/05 04:42:01;;;;;;;20.30;11.90;;;19.10;99.90;;;;;;5078393;28;20285;-79
2021/06/05 04:44:27;;;;;;;23.60;12.33;;;19.10;99.90;;;;;;5095212;28;20181;-79
2021/06/05 04:46:52;;;;;;;19.93;11.57;;;19.20;99.90;;;;;;5095246;28;20196;-79
2021/06/05 04:49:18;;;;;;;19.87;11.57;;;19.10;99.90;;;;;;5094376;28;20173;-79
2021/06/05 04:51:45;;;;;;;19.93;11.13;;;19.20;99.90;;;;;;5077849;28;20197;-79
2021/06/05 04:54:11;;;;;;;20.93;12.77;;;19.30;99.90;;;;;;5079222;28;20173;-80
2021/06/05 04:56:42;;;;;;;20.47;12.23;;;19.40;99.90;;;;;;5081897;28;20188;-79
2021/06/05 04:59:08;;;;;;;21.77;11.90;;;19.50;99.90;;;;;;5081648;28;20176;-80
2021/06/05 05:01:34;;;;;;;18.03;11.37;;;19.50;99.90;;;;;;5098459;28;20193;-79
2021/06/05 05:03:59;;;;;;;19.30;11.60;;;19.60;99.90;;;;;;5098926;28;20231;-79
2021/06/05 05:06:25;;;;;;;20.93;12.07;;;19.60;99.90;;;;;;5081283;28;20201;-79
2021/06/05 05:08:50;;;;;;;20.70;11.63;;;19.60;99.90;;;;;;5081477;28;20250;-79
2021/06/05 05:11:16;;;;;;;18.37;11.10;;;19.70;99.90;;;;;;5098629;28;20196;-78
2021/06/05 05:13:42;;;;;;;20.23;11.23;;;19.60;99.90;;;;;;5081000;28;20177;-80
2021/06/05 05:16:07;;;;;;;19.30;11.37;;;19.70;99.90;;;;;;5081442;28;20188;-79
2021/06/05 05:18:33;;;;;;;17.13;10.60;;;19.70;99.90;;;;;;5097730;28;20579;-79
2021/06/05 05:20:59;;;;;;;15.30;9.90;;;19.80;99.90;;;;;;5097305;28;20616;-79
2021/06/05 05:23:27;;;;;;;16.83;10.40;;;19.80;99.90;;;;;;5097773;28;20192;-80
2021/06/05 05:25:52;;;;;;;16.03;9.80;;;19.90;99.90;;;;;;5080921;28;20205;-79
2021/06/05 05:28:18;;;;;;;18.83;10.70;;;20.00;99.90;;;;;;5080413;28;20203;-78
2021/06/05 05:30:46;;;;;;;17.83;9.87;;;20.10;99.90;;;;;;5080736;28;20230;-79
2021/06/05 05:33:11;;;;;;;16.90;10.10;;;20.00;99.90;;;;;;5079928;28;20651;-80
2021/06/05 05:35:37;;;;;;;16.13;9.87;;;20.00;99.90;;;;;;5103370;28;20181;-80
2021/06/05 05:38:03;;;;;;;16.00;9.67;;;20.00;99.90;;;;;;5064294;28;20177;-79
2021/06/05 05:40:29;;;;;;;15.67;9.77;;;20.00;99.90;;;;;;5089462;28;20643;-80
2021/06/05 05:42:55;;;;;;;16.23;10.00;;;20.10;99.90;;;;;;5102800;28;20180;-79
2021/06/05 05:45:21;;;;;;;15.80;9.90;;;20.10;99.90;;;;;;5085640;28;20177;-79
2021/06/05 05:47:47;;;;;;;16.30;10.30;;;20.10;99.90;;;;;;5096510;28;20212;-79
2021/06/05 05:50:14;;;;;;;17.37;10.83;;;20.20;99.90;;;;;;5066623;28;20220;-79
2021/06/05 05:52:39;;;;;;;17.97;10.80;;;20.20;99.90;;;;;;5091419;28;20188;-79
2021/06/05 05:55:06;;;;;;;18.23;10.47;;;20.30;99.90;;;;;;5097551;28;20523;-79
2021/06/05 05:57:32;;;;;;;18.33;10.73;;;20.60;99.90;;;;;;5080935;28;20176;-80
2021/06/05 05:59:57;;;;;;;18.07;11.07;;;20.80;99.90;;;;;;5096815;28;20173;-79
2021/06/05 06:02:23;;;;;;;19.40;10.73;;;20.90;99.90;;;;;;5113819;28;20237;-81
2021/06/05 06:04:48;;;;;;;20.63;11.03;;;21.00;99.90;;;;;;5096610;28;20273;-79
2021/06/05 06:07:14;;;;;;;20.33;10.87;;;21.10;99.90;;;;;;5096371;28;20208;-80
2021/06/05 06:09:39;;;;;;;20.30;11.60;;;21.00;99.90;;;;;;5096962;28;20220;-78
2021/06/05 06:12:06;;;;;;;20.70;11.80;;;21.00;99.90;;;;;;5096728;28;20576;-78
2021/06/05 06:14:31;;;;;;;25.53;12.07;;;21.00;99.90;;;;;;5080768;28;20205;-78
2021/06/05 06:16:57;;;;;;;20.17;11.33;;;21.00;99.90;;;;;;5111250;28;20647;-78
2021/06/05 06:19:23;;;;;;;19.13;11.43;;;20.90;99.90;;;;;;5094607;28;20180;-78
2021/06/05 06:21:48;;;;;;;22.87;12.07;;;20.90;99.90;;;;;;5095566;28;20207;-78
2021/06/05 06:24:15;;;;;;;22.47;13.43;;;20.90;99.90;;;;;;5098169;28;20195;-78
2021/06/05 06:26:40;;;;;;;29.13;14.83;;;20.90;99.90;;;;;;5100689;28;20254;-79
2021/06/05 06:29:17;;;;;;;29.40;15.97;;;20.80;99.90;;;;;;5081656;28;20546;-78
2021/06/05 06:31:44;;;;;;;30.00;15.67;;;20.80;99.90;;;;;;5082260;28;20192;-78
2021/06/05 06:34:10;;;;;;;31.30;15.53;;;20.90;99.90;;;;;;5081126;28;20264;-78
2021/06/05 06:36:36;;;;;;;26.23;13.73;;;20.90;99.90;;;;;;5080938;28;20205;-80
2021/06/05 06:39:02;;;;;;;29.13;15.27;;;20.90;99.90;;;;;;5078707;28;20177;-80
2021/06/05 06:41:29;;;;;;;31.50;15.87;;;21.00;99.90;;;;;;5079072;28;20268;-81
2021/06/05 06:43:56;;;;;;;33.93;15.87;;;21.00;99.90;;;;;;5096193;28;20180;-81
2021/06/05 06:46:27;;;;;;;26.70;15.03;;;20.90;99.90;;;;;;5103380;28;20210;-80
2021/06/05 06:48:53;;;;;;;28.47;15.03;;;20.80;99.90;;;;;;5105474;28;20661;-80
2021/06/05 06:51:19;;;;;;;29.97;15.07;;;20.80;99.90;;;;;;5088974;28;20192;-82
2021/06/05 06:53:44;;;;;;;28.47;14.63;;;20.70;99.90;;;;;;5088607;28;20183;-80
2021/06/05 06:56:10;;;;;;;28.87;15.63;;;20.70;99.90;;;;;;5067705;28;20184;-79
2021/06/05 06:58:36;;;;;;;27.43;14.80;;;20.70;99.90;;;;;;5084467;28;20179;-81
2021/06/05 07:01:02;;;;;;;27.13;15.43;;;20.80;99.90;;;;;;5085465;28;20197;-79
2021/06/05 07:03:27;;;;;;;28.60;15.67;;;20.80;99.90;;;;;;5068919;28;20196;-78
2021/06/05 07:05:53;;;;;;;29.10;16.93;;;20.80;99.90;;;;;;5092753;28;20199;-79
2021/06/05 07:08:27;;;;;;;31.37;17.57;;;20.80;99.90;;;;;;5100098;28;20184;-78
2021/06/05 07:11:03;;;;;;;28.10;16.07;;;20.80;99.90;;;;;;5085850;28;20196;-79
2021/06/05 07:13:29;;;;;;;23.17;14.40;;;20.60;99.90;;;;;;5108436;28;20161;-78
2021/06/05 07:15:55;;;;;;;22.13;12.83;;;20.50;99.90;;;;;;5109624;28;20180;-79
2021/06/05 07:18:21;;;;;;;19.50;11.40;;;20.40;99.90;;;;;;5082480;28;20185;-78
2021/06/05 07:20:51;;;;;;;19.50;11.67;;;20.30;99.90;;;;;;5080130;28;20258;-79
2021/06/05 07:23:18;;;;;;;20.53;12.47;;;20.30;99.90;;;;;;5082915;28;20551;-79
2021/06/05 07:25:43;;;;;;;18.40;11.70;;;20.30;99.90;;;;;;5081829;28;20199;-78
2021/06/05 07:28:16;;;;;;;20.97;12.27;;;20.30;99.90;;;;;;5105712;28;20185;-78
2021/06/05 07:30:42;;;;;;;21.50;12.23;;;20.20;99.90;;;;;;5085311;28;20212;-78
2021/06/05 07:33:07;;;;;;;22.67;11.77;;;20.20;99.90;;;;;;5085263;28;20241;-77
2021/06/05 07:35:33;;;;;;;17.63;10.23;;;20.20;99.90;;;;;;5078556;28;20169;-78
2021/06/05 07:37:58;;;;;;;17.07;10.20;;;20.30;99.90;;;;;;5103967;28;20639;-78
2021/06/05 07:40:24;;;;;;;16.10;9.33;;;20.40;99.90;;;;;;5083227;28;20180;-78
2021/06/05 07:42:49;;;;;;;15.13;9.40;;;20.50;99.90;;;;;;5103538;28;20172;-78
2021/06/05 07:45:15;;;;;;;16.23;10.10;;;20.70;99.90;;;;;;5073661;28;20199;-79
2021/06/05 07:47:41;;;;;;;17.30;9.80;;;20.70;99.90;;;;;;5104758;28;20233;-78
2021/06/05 07:50:08;;;;;;;15.80;10.17;;;20.70;99.90;;;;;;5105022;28;20184;-79
2021/06/05 07:52:34;;;;;;;15.97;9.83;;;20.60;99.90;;;;;;5087624;28;20204;-78
2021/06/05 07:54:59;;;;;;;14.40;8.80;;;20.70;99.90;;;;;;5083553;28;20176;-82
2021/06/05 07:57:25;;;;;;;17.20;9.63;;;20.80;99.90;;;;;;5073553;28;20176;-81
2021/06/05 07:59:51;;;;;;;16.67;9.77;;;20.80;99.90;;;;;;5087241;28;20232;-80
2021/06/05 08:02:16;;;;;;;17.17;9.73;;;20.80;99.90;;;;;;5102608;28;20200;-79
2021/06/05 08:04:42;;;;;;;18.83;10.43;;;20.80;99.90;;;;;;5106752;28;20619;-79
2021/06/05 08:07:08;;;;;;;17.90;9.63;;;20.80;99.90;;;;;;5093932;28;20259;-80
2021/06/05 08:09:33;;;;;;;16.73;9.63;;;20.80;99.90;;;;;;5096838;28;20617;-80
2021/06/05 08:11:59;;;;;;;16.50;9.47;;;20.80;99.90;;;;;;5092104;28;20246;-82
2021/06/05 08:14:25;;;;;;;14.83;9.00;;;20.80;99.90;;;;;;5077527;28;20552;-81
2021/06/05 08:16:50;;;;;;;16.63;9.43;;;20.80;99.90;;;;;;5097136;28;20540;-80
2021/06/05 08:19:16;;;;;;;16.43;8.90;;;20.90;99.90;;;;;;5096783;28;20192;-80
2021/06/05 08:21:43;;;;;;;15.67;9.30;;;21.10;99.90;;;;;;5079846;28;20207;-81
2021/06/05 08:24:09;;;;;;;13.80;8.90;;;21.30;99.90;;;;;;5096725;28;20200;-81
2021/06/05 08:26:35;;;;;;;14.00;8.97;;;21.40;99.90;;;;;;5079843;28;20204;-81
2021/06/05 08:29:00;;;;;;;15.30;8.83;;;21.70;99.90;;;;;;5084375;28;20561;-80
2021/06/05 08:31:26;;;;;;;15.57;9.07;;;21.70;99.90;;;;;;5090157;28;20227;-80
2021/06/05 08:33:51;;;;;;;15.07;9.10;;;21.80;99.90;;;;;;5080596;28;20209;-81
2021/06/05 08:36:18;;;;;;;16.60;8.50;;;21.90;99.90;;;;;;5079979;28;20188;-79
2021/06/05 08:38:44;;;;;;;15.17;8.90;;;22.10;99.90;;;;;;5073973;28;20207;-80
2021/06/05 08:41:31;;;;;;;13.87;8.40;;;22.00;99.90;;;;;;5106111;28;20197;-79
2021/06/05 08:44:11;;;;;;;13.20;8.40;;;22.00;99.90;;;;;;5106215;28;20184;-80
2021/06/05 08:46:42;;;;;;;16.30;8.60;;;22.20;99.90;;;;;;5085270;28;20208;-80
2021/06/05 08:49:15;;;;;;;13.03;8.73;;;22.20;99.90;;;;;;5107247;28;20175;-80
2021/06/05 08:52:07;;;;;;;14.93;9.17;;;22.30;99.90;;;;;;5096768;28;20197;-80
2021/06/05 08:54:41;;;;;;;13.43;8.13;;;22.40;99.90;;;;;;5096033;28;20240;-81
2021/06/05 08:57:40;;;;;;;15.57;8.83;;;22.40;99.90;;;;;;5113632;28;20256;-82
2021/06/05 09:00:34;;;;;;;17.47;10.13;;;22.50;99.90;;;;;;5093173;28;20260;-83
2021/06/05 09:03:08;;;;;;;16.90;10.10;;;22.50;99.90;;;;;;5093838;28;20302;-85
2021/06/05 09:05:36;;;;;;;19.27;11.10;;;22.30;99.90;;;;;;5097077;28;20639;-82
2021/06/05 09:08:03;;;;;;;19.97;11.00;;;22.20;99.90;;;;;;5077563;28;20183;-81
2021/06/05 09:10:29;;;;;;;22.13;11.73;;;22.10;99.90;;;;;;5104275;28;20202;-80
2021/06/05 09:12:54;;;;;;;17.30;10.17;;;22.10;99.90;;;;;;5089907;28;20188;-80
2021/06/05 09:15:25;;;;;;;18.70;11.33;;;21.90;99.90;;;;;;5085591;28;20294;-78
2021/06/05 09:17:53;;;;;;;20.97;11.27;;;22.00;99.90;;;;;;5090877;28;20210;-82
2021/06/05 09:20:37;;;;;;;19.37;11.33;;;22.20;99.90;;;;;;5086750;28;20189;-81
2021/06/05 09:23:21;;;;;;;19.97;11.10;;;22.10;99.90;;;;;;5105636;28;20237;-79
2021/06/05 09:25:46;;;;;;;18.27;10.53;;;22.10;99.90;;;;;;5082280;28;20751;-80
2021/06/05 09:28:12;;;;;;;19.17;10.80;;;22.10;99.90;;;;;;5101956;28;20205;-80
2021/06/05 09:30:40;;;;;;;18.17;10.60;;;22.10;99.90;;;;;;5106433;28;20253;-80
2021/06/05 09:33:07;;;;;;;17.77;10.43;;;22.10;99.90;;;;;;5088264;28;20176;-81
2021/06/05 09:35:40;;;;;;;18.93;11.33;;;22.00;99.90;;;;;;5070773;28;20240;-78
2021/06/05 09:38:18;;;;;;;17.83;10.60;;;22.10;99.90;;;;;;5101861;28;20173;-79
2021/06/05 09:41:22;;;;;;;18.40;11.63;;;22.00;99.90;;;;;;5099460;28;20662;-78
2021/06/05 09:43:48;;;;;;;19.70;11.60;;;21.90;99.90;;;;;;5100343;28;20276;-80
2021/06/05 09:46:23;;;;;;;17.00;11.30;;;22.10;99.90;;;;;;5099453;28;20223;-78
2021/06/05 09:48:50;;;;;;;20.47;11.67;;;22.40;99.90;;;;;;5116194;28;20289;-78
2021/06/05 09:51:26;;;;;;;20.40;11.50;;;22.70;99.90;;;;;;5082304;28;20200;-78
2021/06/05 09:54:09;;;;;;;19.90;12.00;;;22.80;99.90;;;;;;5083224;28;20176;-81
2021/06/05 09:56:37;;;;;;;18.77;11.30;;;22.80;99.90;;;;;;5099535;28;20188;-81
2021/06/05 09:59:14;;;;;;;18.37;11.17;;;22.80;99.90;;;;;;5099231;28;20175;-78
2021/06/05 10:01:40;;;;;;;19.73;11.17;;;22.90;99.90;;;;;;5117505;28;20196;-81
2021/06/05 10:04:08;;;;;;;20.97;12.23;;;22.90;99.90;;;;;;5100797;28;20191;-82
2021/06/05 10:06:35;;;;;;;21.30;11.20;;;22.70;99.90;;;;;;5116530;28;20199;-78
2021/06/05 10:09:04;;;;;;;21.80;12.00;;;22.60;99.90;;;;;;5114891;28;20187;-79
2021/06/05 10:11:38;;;;;;;20.67;12.00;;;22.60;99.90;;;;;;5102940;28;20200;-79
2021/06/05 10:14:16;;;;;;;20.97;11.77;;;22.50;99.90;;;;;;5086395;28;20171;-78
2021/06/05 10:16:45;;;;;;;21.67;12.03;;;22.40;99.90;;;;;;5080605;28;20706;-78
2021/06/05 10:19:14;;;;;;;24.70;12.57;;;22.60;99.90;;;;;;5097868;28;20564;-77
2021/06/05 10:21:44;;;;;;;22.73;12.23;;;22.70;99.90;;;;;;5091957;28;20602;-80
2021/06/05 10:24:38;;;;;;;21.20;12.23;;;22.70;99.90;;;;;;5094379;28;20197;-78
2021/06/05 10:27:12;;;;;;;19.47;11.87;;;22.70;99.90;;;;;;5117055;28;20204;-79
2021/06/05 10:29:47;;;;;;;20.73;12.17;;;22.80;99.90;;;;;;5095063;28;20180;-78
2021/06/05 10:32:27;;;;;;;18.73;10.67;;;23.00;99.90;;;;;;5112400;28;20207;-78
2021/06/05 10:35:00;;;;;;;18.10;11.40;;;23.10;99.90;;;;;;5109787;28;20176;-77
2021/06/05 10:37:27;;;;;;;20.13;11.30;;;23.30;99.90;;;;;;5095775;28;20187;-78
2021/06/05 10:39:53;;;;;;;19.67;11.43;;;23.40;99.90;;;;;;5097453;28;20180;-77
2021/06/05 10:42:18;;;;;;;19.27;11.97;;;23.40;99.90;;;;;;5097661;28;20218;-79
2021/06/05 10:44:44;;;;;;;19.23;10.83;;;23.40;99.90;;;;;;5113820;28;20184;-79
2021/06/05 10:47:17;;;;;;;17.50;10.60;;;23.40;99.90;;;;;;5080316;28;20196;-82
2021/06/05 10:49:58;;;;;;;19.50;11.73;;;23.30;99.90;;;;;;5100680;28;20175;-79
2021/06/05 10:52:32;;;;;;;17.63;10.53;;;23.20;99.90;;;;;;5115617;28;20206;-79
2021/06/05 10:55:01;;;;;;;18.53;11.70;;;23.20;99.90;;;;;;5096377;28;20176;-78
2021/06/05 10:57:32;;;;;;;19.77;11.63;;;23.30;99.90;;;;;;5080534;28;20207;-78
2021/06/05 11:00:24;;;;;;;16.63;10.80;;;23.30;99.90;;;;;;5080520;28;20192;-78
2021/06/05 11:02:52;;;;;;;19.33;10.90;;;23.20;99.90;;;;;;5097077;28;20553;-79
2021/06/05 11:05:18;;;;;;;15.07;9.80;;;23.20;99.90;;;;;;5082953;28;20184;-79
2021/06/05 11:07:47;;;;;;;15.17;8.60;;;23.20;99.90;;;;;;5116183;28;20248;-79
2021/06/05 11:10:49;;;;;;;14.87;9.40;;;23.10;99.90;;;;;;5080756;28;20215;-80
2021/06/05 11:13:36;;;;;;;16.50;9.67;;;23.10;99.90;;;;;;5093710;28;20187;-79
2021/06/05 11:16:12;;;;;;;15.23;9.07;;;23.10;99.90;;;;;;5114914;28;20184;-79
2021/06/05 11:18:38;;;;;;;15.80;9.47;;;23.20;99.90;;;;;;5081857;28;20186;-80
2021/06/05 11:21:22;;;;;;;14.93;9.80;;;23.30;99.90;;;;;;5115697;28;20271;-79
2021/06/05 11:23:57;;;;;;;17.40;9.63;;;23.40;99.90;;;;;;5117536;28;20330;-79
2021/06/05 11:26:37;;;;;;;15.10;9.97;;;23.30;99.90;;;;;;5115989;28;20266;-79
2021/06/05 11:29:18;;;;;;;15.83;9.53;;;23.30;99.90;;;;;;5115615;28;20203;-79
2021/06/05 11:31:53;;;;;;;15.13;9.53;;;23.30;99.90;;;;;;5114167;28;20198;-79
2021/06/05 11:34:34;;;;;;;14.03;8.77;;;23.30;99.90;;;;;;5114345;28;20168;-79
2021/06/05 11:36:59;;;;;;;15.57;9.27;;;23.30;99.90;;;;;;5113981;28;20237;-79
2021/06/05 11:39:25;;;;;;;15.60;9.60;;;23.50;99.90;;;;;;5114268;28;20180;-79
2021/06/05 11:41:55;;;;;;;12.83;9.03;;;23.50;99.90;;;;;;5121044;27;20203;-79
2021/06/05 11:44:33;;;;;;;16.17;9.73;;;23.40;99.90;;;;;;5098357;28;20639;-78
2021/06/05 11:47:21;;;;;;;15.10;9.00;;;23.30;99.90;;;;;;5113833;28;20195;-79
2021/06/05 11:49:49;;;;;;;13.52;9.70;;;23.30;99.90;;;;;;5092147;28;20678;-80
2021/06/05 11:52:27;;;;;;;17.27;11.10;;;23.20;99.90;;;;;;5115633;28;20192;-80
2021/06/05 11:54:57;;;;;;;15.40;9.95;;;23.00;99.90;;;;;;5116879;28;20198;-80
2021/06/05 11:57:25;;;;;;;15.27;9.53;;;23.00;99.90;;;;;;5097107;28;20207;-78
2021/06/05 11:59:51;;;;;;;14.93;9.50;;;23.10;99.90;;;;;;5078243;28;20183;-80
2021/06/05 12:02:35;;;;;;;17.30;9.93;;;23.10;99.90;;;;;;5099365;28;20571;-79
2021/06/05 12:05:19;;;;;;;14.60;9.70;;;23.30;99.90;;;;;;5085122;28;20190;-80
2021/06/05 12:07:44;;;;;;;13.03;8.77;;;23.30;99.90;;;;;;5103155;28;20196;-80
2021/06/05 12:10:12;;;;;;;13.82;9.23;;;23.40;99.90;;;;;;5102588;28;20190;-80
2021/06/05 12:12:48;;;;;;;13.60;8.65;;;23.50;99.90;;;;;;5103346;28;20242;-79
2021/06/05 12:15:31;;;;;;;14.13;8.63;;;23.50;99.90;;;;;;5086558;28;20700;-79
2021/06/05 12:17:59;;;;;;;13.83;8.70;;;23.50;99.90;;;;;;5102811;28;20183;-80
2021/06/05 12:20:34;;;;;;;11.70;7.90;;;23.50;99.90;;;;;;5085519;28;20169;-80
2021/06/05 12:23:29;;;;;;;11.73;8.20;;;23.50;99.90;;;;;;5102733;28;20632;-79
2021/06/05 12:26:05;;;;;;;12.47;7.50;;;23.30;99.90;;;;;;5085887;28;20199;-80
2021/06/05 12:28:39;;;;;;;11.30;7.63;;;23.40;99.90;;;;;;5084578;28;20553;-80
2021/06/05 12:31:13;;;;;;;13.73;8.20;;;23.40;99.90;;;;;;5084729;28;20200;-80
2021/06/05 12:33:39;;;;;;;14.70;9.03;;;23.50;99.90;;;;;;5122584;27;20225;-80
2021/06/05 12:36:25;;;;;;;14.13;8.90;;;23.50;99.90;;;;;;5097713;28;20180;-79
2021/06/05 12:38:53;;;;;;;12.20;8.03;;;23.60;99.90;;;;;;5117199;28;20203;-79
2021/06/05 12:41:28;;;;;;;13.17;7.87;;;23.90;99.90;;;;;;5105668;28;20589;-80
2021/06/05 12:43:55;;;;;;;12.43;7.80;;;24.10;99.90;;;;;;5083199;28;20496;-79